Time;durP1;ratioP1;P1;durP2;ratioP2;P2;SDS_P1;SDS_P2;PMS_P1;PMS_P2;Temp;Humidity;BMP_temperature;BMP_pressure;BME280_temperature;BME280_humidity;BME280_pressure;Samples;Min_cycle;Max_cycle;Signal;HPM_P1;HPM_P2
2023/10/23 00:00:21;;;;;;;75.57;34.70;;;;;;;;;;10435240;28;20029;-87
2023/10/23 00:05:22;;;;;;;70.00;35.27;;;;;;;;;;10399217;28;20120;-84
2023/10/23 00:10:23;;;;;;;61.90;37.20;;;;;;;;;;10439665;28;20538;-84
2023/10/23 00:15:24;;;;;;;53.40;30.27;;;;;;;;;;10426943;28;20037;-86
2023/10/23 00:20:25;;;;;;;36.00;22.40;;;;;;;;;;10445329;28;20064;-84
2023/10/23 00:25:26;;;;;;;72.47;41.37;;;;;;;;;;10449384;28;20025;-84
2023/10/23 00:30:31;;;;;;;72.95;40.58;;;;;;;;;;10448054;28;20041;-87
2023/10/23 00:35:33;;;;;;;62.45;36.47;;;;;;;;;;10448544;28;20041;-84
2023/10/23 00:40:34;;;;;;;54.17;33.40;;;;;;;;;;10448219;28;20388;-84
2023/10/23 00:45:35;;;;;;;64.20;38.10;;;;;;;;;;10447369;28;20024;-86
2023/10/23 00:50:36;;;;;;;56.73;35.63;;;;;;;;;;10447436;28;20496;-84
2023/10/23 00:55:37;;;;;;;58.10;33.63;;;;;;;;;;10447753;28;20036;-87
2023/10/23 01:00:39;;;;;;;51.60;30.63;;;;;;;;;;10447358;28;20033;-87
2023/10/23 01:05:40;;;;;;;51.43;30.57;;;;;;;;;;10447432;28;20036;-86
2023/10/23 01:10:41;;;;;;;295.37;65.30;;;;;;;;;;10446969;28;20801;-84
2023/10/23 01:15:42;;;;;;;105.93;43.00;;;;;;;;;;10445918;28;20021;-85
2023/10/23 01:20:44;;;;;;;57.80;31.37;;;;;;;;;;10460681;28;20048;-84
2023/10/23 01:25:45;;;;;;;60.87;34.53;;;;;;;;;;10487704;28;20041;-84
2023/10/23 01:30:47;;;;;;;64.27;37.97;;;;;;;;;;10485706;28;20036;-84
2023/10/23 01:35:48;;;;;;;61.75;34.17;;;;;;;;;;10487790;28;20100;-84
2023/10/23 01:40:49;;;;;;;55.80;33.47;;;;;;;;;;10486363;28;20112;-84
2023/10/23 01:45:59;;;;;;;60.87;34.77;;;;;;;;;;10486520;28;20056;-87
2023/10/23 01:51:03;;;;;;;47.47;28.40;;;;;;;;;;10485981;28;20036;-84
2023/10/23 01:56:08;;;;;;;59.87;34.17;;;;;;;;;;10485976;28;20039;-88
2023/10/23 02:01:18;;;;;;;49.10;28.07;;;;;;;;;;10485680;28;20507;-84
2023/10/23 02:06:19;;;;;;;61.77;35.57;;;;;;;;;;10485589;28;20274;-84
2023/10/23 02:11:27;;;;;;;57.37;34.17;;;;;;;;;;10484997;28;20543;-84
2023/10/23 02:16:28;;;;;;;41.83;25.27;;;;;;;;;;10482046;28;20024;-84
2023/10/23 02:21:29;;;;;;;63.17;38.77;;;;;;;;;;10485662;28;20025;-84
2023/10/23 02:26:30;;;;;;;60.63;35.93;;;;;;;;;;10483404;28;20078;-84
2023/10/23 02:31:31;;;;;;;56.80;34.10;;;;;;;;;;10483108;28;20056;-84
2023/10/23 02:36:39;;;;;;;54.47;29.83;;;;;;;;;;10485126;28;20085;-83
2023/10/23 02:41:40;;;;;;;43.03;25.57;;;;;;;;;;10484542;28;20032;-89
2023/10/23 02:46:41;;;;;;;46.03;27.90;;;;;;;;;;10484723;28;20089;-85
2023/10/23 02:51:43;;;;;;;41.30;25.33;;;;;;;;;;10484092;28;20830;-84
2023/10/23 02:56:44;;;;;;;35.80;23.67;;;;;;;;;;10485288;28;20652;-88
2023/10/23 03:01:45;;;;;;;90.93;33.07;;;;;;;;;;10484052;28;20074;-84
2023/10/23 03:06:46;;;;;;;123.63;41.40;;;;;;;;;;10483765;28;20044;-84
2023/10/23 03:11:47;;;;;;;79.87;34.90;;;;;;;;;;10484841;28;20036;-85
2023/10/23 03:16:48;;;;;;;124.57;42.80;;;;;;;;;;10472208;28;20413;-82
2023/10/23 03:21:49;;;;;;;69.17;36.67;;;;;;;;;;10472010;28;20040;-81
2023/10/23 03:26:50;;;;;;;98.37;45.30;;;;;;;;;;10480560;28;20468;-84
2023/10/23 03:31:51;;;;;;;98.10;45.43;;;;;;;;;;10483079;28;20064;-84
2023/10/23 03:36:53;;;;;;;163.00;55.87;;;;;;;;;;10482395;28;20044;-84
2023/10/23 03:41:54;;;;;;;77.53;35.60;;;;;;;;;;10485006;28;20145;-83
2023/10/23 03:47:01;;;;;;;35.37;22.00;;;;;;;;;;10484266;28;20138;-83
2023/10/23 03:52:02;;;;;;;95.67;44.13;;;;;;;;;;10482637;28;20186;-79
2023/10/23 03:57:03;;;;;;;83.57;46.27;;;;;;;;;;10484302;28;20033;-83
2023/10/23 04:02:04;;;;;;;73.97;42.37;;;;;;;;;;10482664;28;20033;-84
2023/10/23 04:07:05;;;;;;;81.37;35.00;;;;;;;;;;10482635;28;20028;-84
2023/10/23 04:12:07;;;;;;;64.30;32.43;;;;;;;;;;10483676;28;20400;-83
2023/10/23 04:17:08;;;;;;;100.13;44.70;;;;;;;;;;10487448;28;20095;-80
2023/10/23 04:22:09;;;;;;;116.87;46.63;;;;;;;;;;10488565;28;20424;-82
2023/10/23 04:27:10;;;;;;;76.03;38.33;;;;;;;;;;10484543;28;20028;-81
2023/10/23 04:32:11;;;;;;;49.97;31.40;;;;;;;;;;10489617;28;20480;-82
2023/10/23 04:37:12;;;;;;;51.47;29.53;;;;;;;;;;10490619;28;20039;-81
2023/10/23 04:42:13;;;;;;;56.90;33.50;;;;;;;;;;10490224;28;20093;-82
2023/10/23 04:47:14;;;;;;;54.03;31.77;;;;;;;;;;10494371;28;20024;-81
2023/10/23 04:52:16;;;;;;;76.97;34.67;;;;;;;;;;10478571;28;20028;-82
2023/10/23 04:57:17;;;;;;;52.00;29.20;;;;;;;;;;10487809;28;20373;-81
2023/10/23 05:02:18;;;;;;;75.27;35.67;;;;;;;;;;10489336;28;20032;-82
2023/10/23 05:07:19;;;;;;;61.43;35.97;;;;;;;;;;10488955;28;20046;-84
2023/10/23 05:12:20;;;;;;;54.60;33.17;;;;;;;;;;10487096;28;20039;-85
2023/10/23 05:17:23;;;;;;;52.50;32.77;;;;;;;;;;10478759;28;20052;-82
2023/10/23 05:22:25;;;;;;;59.47;36.30;;;;;;;;;;10476114;28;20033;-81
2023/10/23 05:27:26;;;;;;;87.07;41.93;;;;;;;;;;10487010;28;20028;-83
2023/10/23 05:32:27;;;;;;;58.70;34.57;;;;;;;;;;10487764;28;20101;-81
2023/10/23 05:37:28;;;;;;;76.57;38.17;;;;;;;;;;10487738;28;20028;-82
2023/10/23 05:42:30;;;;;;;74.53;39.93;;;;;;;;;;10485912;28;20047;-80
2023/10/23 05:47:31;;;;;;;54.90;34.27;;;;;;;;;;10486188;28;20074;-81
2023/10/23 05:52:32;;;;;;;56.67;35.43;;;;;;;;;;10473599;28;20530;-83
2023/10/23 05:57:33;;;;;;;59.90;34.67;;;;;;;;;;10486867;28;20028;-81
2023/10/23 06:02:34;;;;;;;51.07;32.83;;;;;;;;;;10485065;28;20060;-82
2023/10/23 06:07:35;;;;;;;57.90;34.20;;;;;;;;;;10486636;28;20138;-80
2023/10/23 06:12:36;;;;;;;62.60;35.90;;;;;;;;;;10486503;28;20044;-81
2023/10/23 06:17:37;;;;;;;57.40;34.13;;;;;;;;;;10485352;28;20057;-81
2023/10/23 06:22:38;;;;;;;60.73;37.07;;;;;;;;;;10472649;28;20046;-80
2023/10/23 06:27:39;;;;;;;63.53;40.90;;;;;;;;;;10487282;28;20039;-81
2023/10/23 06:32:40;;;;;;;81.70;47.60;;;;;;;;;;10486094;28;20443;-81
2023/10/23 06:37:42;;;;;;;60.03;37.13;;;;;;;;;;10486667;28;20116;-82
2023/10/23 06:42:43;;;;;;;77.23;42.43;;;;;;;;;;10485940;28;20051;-79
2023/10/23 06:47:47;;;;;;;87.30;47.73;;;;;;;;;;10485674;28;20028;-81
2023/10/23 06:52:48;;;;;;;96.77;54.77;;;;;;;;;;10462233;28;20044;-83
2023/10/23 06:57:49;;;;;;;64.60;39.73;;;;;;;;;;10479512;28;20111;-84
2023/10/23 07:02:51;;;;;;;76.50;45.17;;;;;;;;;;10485873;28;20043;-81
2023/10/23 07:07:52;;;;;;;66.68;39.03;;;;;;;;;;10486107;28;20392;-82
2023/10/23 07:12:55;;;;;;;66.93;39.37;;;;;;;;;;10483889;28;20039;-81
2023/10/23 07:17:56;;;;;;;89.80;46.77;;;;;;;;;;10484210;28;20129;-84
2023/10/23 07:22:56;;;;;;;73.13;40.60;;;;;;;;;;10484560;28;20067;-82
2023/10/23 07:27:58;;;;;;;77.97;44.90;;;;;;;;;;10485066;28;20352;-82
2023/10/23 07:32:59;;;;;;;79.13;47.17;;;;;;;;;;10484140;28;20408;-82
2023/10/23 07:38:00;;;;;;;66.05;41.20;;;;;;;;;;10485242;28;20041;-83
2023/10/23 07:43:01;;;;;;;68.53;42.10;;;;;;;;;;10485239;28;20029;-80
2023/10/23 07:48:03;;;;;;;72.55;43.20;;;;;;;;;;10485718;28;20093;-83
2023/10/23 07:53:04;;;;;;;59.03;35.42;;;;;;;;;;10490772;28;20040;-81
2023/10/23 07:58:05;;;;;;;60.67;36.15;;;;;;;;;;10491904;28;20433;-80
2023/10/23 08:03:06;;;;;;;63.90;38.92;;;;;;;;;;10491947;28;20041;-80
2023/10/23 08:08:07;;;;;;;53.63;32.28;;;;;;;;;;10492023;28;20440;-83
2023/10/23 08:13:15;;;;;;;52.20;33.72;;;;;;;;;;10490388;28;20050;-82
2023/10/23 08:18:16;;;;;;;58.40;36.28;;;;;;;;;;10490719;28;20063;-83
2023/10/23 08:23:17;;;;;;;49.03;32.60;;;;;;;;;;10491692;28;20031;-83
2023/10/23 08:28:18;;;;;;;52.78;33.53;;;;;;;;;;10491412;28;20036;-85
2023/10/23 08:33:19;;;;;;;55.17;33.42;;;;;;;;;;10490392;28;20052;-81
2023/10/23 08:38:20;;;;;;;53.25;33.53;;;;;;;;;;10490899;28;20752;-82
2023/10/23 08:43:22;;;;;;;55.55;33.15;;;;;;;;;;10490931;28;20032;-82
2023/10/23 08:48:23;;;;;;;55.78;33.08;;;;;;;;;;10490383;28;20499;-83
2023/10/23 08:53:32;;;;;;;61.30;37.13;;;;;;;;;;10490455;28;20033;-82
2023/10/23 08:58:34;;;;;;;56.45;34.30;;;;;;;;;;10489524;28;20020;-81
2023/10/23 09:03:42;;;;;;;51.80;32.22;;;;;;;;;;10490402;28;20494;-81
2023/10/23 09:08:43;;;;;;;51.65;32.50;;;;;;;;;;10487913;28;20039;-83
2023/10/23 09:13:51;;;;;;;54.33;33.03;;;;;;;;;;10489696;28;20043;-83
2023/10/23 09:18:53;;;;;;;44.75;29.30;;;;;;;;;;10488687;28;20065;-82
2023/10/23 09:24:00;;;;;;;46.05;29.35;;;;;;;;;;10488796;28;20434;-83
2023/10/23 09:29:01;;;;;;;39.35;24.55;;;;;;;;;;10488702;28;20361;-83
2023/10/23 09:34:02;;;;;;;38.88;23.77;;;;;;;;;;10488352;28;20093;-81
2023/10/23 09:39:03;;;;;;;38.67;24.65;;;;;;;;;;10488879;28;20028;-84
2023/10/23 09:44:12;;;;;;;41.10;26.40;;;;;;;;;;10488130;28;20074;-83
2023/10/23 09:49:13;;;;;;;36.22;23.98;;;;;;;;;;10486942;28;20020;-83
2023/10/23 09:54:19;;;;;;;36.45;23.88;;;;;;;;;;10487963;28;20033;-83
2023/10/23 09:59:25;;;;;;;37.58;24.27;;;;;;;;;;10470275;28;20511;-82
2023/10/23 10:04:34;;;;;;;28.25;19.17;;;;;;;;;;10486507;28;20523;-83
2023/10/23 10:09:35;;;;;;;30.63;16.83;;;;;;;;;;10487045;28;20031;-83
2023/10/23 10:14:36;;;;;;;27.17;15.50;;;;;;;;;;10484469;28;20044;-83
2023/10/23 10:19:38;;;;;;;25.15;14.18;;;;;;;;;;10468141;28;20053;-84
2023/10/23 10:24:40;;;;;;;23.00;14.45;;;;;;;;;;10452704;28;20024;-83
2023/10/23 10:29:41;;;;;;;18.80;11.15;;;;;;;;;;10446319;28;20392;-84
2023/10/23 10:34:53;;;;;;;19.27;10.80;;;;;;;;;;10428263;28;20873;-84
2023/10/23 10:39:58;;;;;;;17.42;10.38;;;;;;;;;;10456589;28;20029;-83
2023/10/23 10:45:00;;;;;;;15.27;9.25;;;;;;;;;;10452098;28;20033;-84
2023/10/23 10:50:01;;;;;;;14.18;7.78;;;;;;;;;;10443842;28;20029;-83
2023/10/23 10:55:04;;;;;;;13.02;7.03;;;;;;;;;;10450856;28;20037;-84
2023/10/23 11:00:05;;;;;;;11.80;6.20;;;;;;;;;;10431922;28;20029;-82
2023/10/23 11:05:10;;;;;;;13.23;5.85;;;;;;;;;;10449008;28;20047;-84
2023/10/23 11:10:12;;;;;;;12.43;6.45;;;;;;;;;;10444999;28;20029;-84
2023/10/23 11:15:15;;;;;;;10.48;5.88;;;;;;;;;;10443652;28;20523;-83
2023/10/23 11:20:16;;;;;;;13.60;6.00;;;;;;;;;;10451858;28;20113;-84
2023/10/23 11:25:17;;;;;;;12.95;5.28;;;;;;;;;;10448405;28;20064;-83
2023/10/23 11:30:19;;;;;;;10.27;4.13;;;;;;;;;;10450978;28;20045;-84
2023/10/23 11:35:20;;;;;;;13.80;4.82;;;;;;;;;;10445574;28;20107;-86
2023/10/23 11:40:21;;;;;;;8.18;3.90;;;;;;;;;;10451584;28;20035;-84
2023/10/23 11:45:22;;;;;;;15.38;5.30;;;;;;;;;;10402743;28;20029;-85
2023/10/23 11:50:25;;;;;;;9.63;5.30;;;;;;;;;;10448543;28;20039;-86
2023/10/23 11:55:26;;;;;;;10.93;4.07;;;;;;;;;;10432823;28;20082;-86
2023/10/23 12:00:31;;;;;;;6.38;2.90;;;;;;;;;;10459792;28;20023;-85
2023/10/23 12:05:32;;;;;;;20.48;9.35;;;;;;;;;;10454067;28;20484;-84
2023/10/23 12:10:37;;;;;;;12.43;5.53;;;;;;;;;;10460215;28;20064;-84
2023/10/23 12:15:38;;;;;;;10.80;4.63;;;;;;;;;;10443638;28;20079;-84
2023/10/23 12:20:39;;;;;;;8.40;2.97;;;;;;;;;;10417460;28;20069;-83
2023/10/23 12:25:40;;;;;;;24.40;10.57;;;;;;;;;;10406666;28;20032;-85
2023/10/23 12:30:42;;;;;;;13.25;5.40;;;;;;;;;;10408188;28;20060;-84
2023/10/23 12:35:43;;;;;;;8.77;3.85;;;;;;;;;;10407202;28;20029;-85
2023/10/23 12:40:46;;;;;;;9.90;5.20;;;;;;;;;;10407415;28;20025;-84
2023/10/23 12:45:47;;;;;;;9.73;4.70;;;;;;;;;;10402797;28;20029;-84
2023/10/23 12:50:48;;;;;;;7.55;3.95;;;;;;;;;;10399627;28;20025;-84
2023/10/23 12:55:49;;;;;;;12.02;3.95;;;;;;;;;;10396278;28;20030;-84
2023/10/23 13:00:50;;;;;;;9.30;3.55;;;;;;;;;;10388566;28;20361;-83
2023/10/23 13:05:51;;;;;;;10.00;3.95;;;;;;;;;;10405387;28;20226;-82
2023/10/23 13:10:52;;;;;;;6.78;3.03;;;;;;;;;;10402785;28;20051;-83
2023/10/23 13:15:54;;;;;;;7.70;3.08;;;;;;;;;;10404383;28;20484;-84
2023/10/23 13:20:55;;;;;;;13.20;5.93;;;;;;;;;;10423118;28;20049;-82
2023/10/23 13:25:56;;;;;;;8.55;3.30;;;;;;;;;;10451278;28;20029;-79
2023/10/23 13:30:58;;;;;;;5.40;2.35;;;;;;;;;;10448758;28;20380;-79
2023/10/23 13:35:59;;;;;;;7.65;2.67;;;;;;;;;;10445447;28;20396;-79
2023/10/23 13:41:08;;;;;;;7.28;2.70;;;;;;;;;;10446752;28;20047;-84
2023/10/23 13:46:09;;;;;;;8.38;3.08;;;;;;;;;;10445804;28;20578;-83
2023/10/23 13:51:10;;;;;;;13.05;2.63;;;;;;;;;;10445360;28;20040;-81
2023/10/23 13:56:11;;;;;;;7.88;3.20;;;;;;;;;;10449628;28;20388;-80
2023/10/23 14:01:12;;;;;;;8.65;3.10;;;;;;;;;;10444987;28;20132;-80
2023/10/23 14:06:14;;;;;;;6.97;2.80;;;;;;;;;;10445106;28;20044;-82
2023/10/23 14:11:22;;;;;;;17.38;5.60;;;;;;;;;;10444038;28;20045;-77
2023/10/23 14:16:24;;;;;;;8.35;3.63;;;;;;;;;;10440036;28;20431;-80
2023/10/23 14:21:31;;;;;;;8.13;3.92;;;;;;;;;;10425002;28;20049;-80
2023/10/23 14:26:32;;;;;;;11.60;4.65;;;;;;;;;;10444014;28;20380;-81
2023/10/23 14:31:33;;;;;;;10.88;3.95;;;;;;;;;;10445259;28;20041;-80
2023/10/23 14:36:35;;;;;;;36.25;17.38;;;;;;;;;;10454407;28;20029;-81
2023/10/23 14:41:36;;;;;;;13.93;5.63;;;;;;;;;;10444014;28;20122;-80
2023/10/23 14:46:37;;;;;;;10.27;4.35;;;;;;;;;;10443673;28;20033;-82
2023/10/23 14:51:38;;;;;;;11.35;4.95;;;;;;;;;;10435384;28;20044;-82
2023/10/23 14:56:39;;;;;;;13.80;6.38;;;;;;;;;;10443879;28;20572;-81
2023/10/23 15:01:40;;;;;;;15.27;6.50;;;;;;;;;;10452838;28;20480;-82
2023/10/23 15:06:41;;;;;;;17.20;7.18;;;;;;;;;;10442994;28;20037;-82
2023/10/23 15:11:42;;;;;;;17.52;8.60;;;;;;;;;;10444335;28;20048;-82
2023/10/23 15:17:01;;;;;;;23.52;11.80;;;;;;;;;;10444657;28;20033;-82
2023/10/23 15:22:02;;;;;;;35.08;16.67;;;;;;;;;;10441657;28;20057;-83
2023/10/23 15:27:03;;;;;;;48.83;26.77;;;;;;;;;;10425842;28;20090;-82
2023/10/23 15:32:05;;;;;;;54.38;27.70;;;;;;;;;;10456460;28;20064;-81
2023/10/23 15:37:05;;;;;;;59.03;31.23;;;;;;;;;;10431245;28;20037;-83
2023/10/23 15:42:07;;;;;;;39.42;19.08;;;;;;;;;;10443532;28;20029;-80
2023/10/23 15:47:09;;;;;;;38.83;21.10;;;;;;;;;;10445687;28;20047;-82
2023/10/23 15:52:10;;;;;;;37.33;21.25;;;;;;;;;;10442971;28;20040;-80
2023/10/23 15:57:11;;;;;;;27.23;14.68;;;;;;;;;;10441462;28;20425;-80
2023/10/23 16:02:13;;;;;;;18.95;8.82;;;;;;;;;;10440012;28;20052;-81
2023/10/23 16:07:14;;;;;;;17.88;8.32;;;;;;;;;;10438846;28;20108;-81
2023/10/23 16:12:15;;;;;;;16.30;8.05;;;;;;;;;;10443390;28;20498;-80
2023/10/23 16:17:16;;;;;;;21.50;11.07;;;;;;;;;;10452696;28;20147;-81
2023/10/23 16:22:19;;;;;;;30.60;13.07;;;;;;;;;;10448168;28;20057;-83
2023/10/23 16:27:20;;;;;;;32.63;17.15;;;;;;;;;;10451154;28;20111;-81
2023/10/23 16:32:21;;;;;;;40.88;22.00;;;;;;;;;;10448486;28;20102;-83
2023/10/23 16:37:22;;;;;;;27.38;14.68;;;;;;;;;;10448734;28;20039;-80
2023/10/23 16:42:24;;;;;;;22.85;13.52;;;;;;;;;;10447930;28;20381;-80
2023/10/23 16:47:25;;;;;;;20.75;9.48;;;;;;;;;;10449610;28;20028;-85
2023/10/23 16:52:26;;;;;;;23.17;11.27;;;;;;;;;;10441805;28;20051;-80
2023/10/23 16:57:27;;;;;;;29.10;15.90;;;;;;;;;;10448259;28;20120;-79
2023/10/23 17:02:28;;;;;;;23.95;13.00;;;;;;;;;;10448135;28;20022;-80
2023/10/23 17:07:33;;;;;;;26.15;13.38;;;;;;;;;;10447922;28;20036;-81
2023/10/23 17:12:41;;;;;;;22.90;10.70;;;;;;;;;;10430203;28;20037;-82
2023/10/23 17:17:42;;;;;;;21.35;10.65;;;;;;;;;;10449402;28;20116;-80
2023/10/23 17:22:44;;;;;;;27.27;12.00;;;;;;;;;;10447049;28;20055;-80
2023/10/23 17:27:45;;;;;;;64.57;33.63;;;;;;;;;;10445933;28;20044;-80
2023/10/23 17:32:46;;;;;;;33.50;18.20;;;;;;;;;;10457103;28;20048;-82
2023/10/23 17:37:47;;;;;;;26.08;13.52;;;;;;;;;;10446346;28;20040;-80
2023/10/23 17:42:48;;;;;;;26.83;14.65;;;;;;;;;;10442853;28;20075;-82
2023/10/23 17:47:51;;;;;;;26.77;15.05;;;;;;;;;;10452377;28;20038;-81
2023/10/23 17:52:56;;;;;;;35.92;18.27;;;;;;;;;;10442250;28;20360;-79
2023/10/23 17:57:57;;;;;;;27.38;14.70;;;;;;;;;;10449731;28;20035;-81
2023/10/23 18:02:58;;;;;;;31.20;17.90;;;;;;;;;;10445662;28;20044;-82
2023/10/23 18:07:59;;;;;;;86.38;40.67;;;;;;;;;;10452834;28;20095;-80
2023/10/23 18:13:00;;;;;;;109.18;53.38;;;;;;;;;;10438237;28;20037;-80
2023/10/23 18:18:01;;;;;;;74.45;39.38;;;;;;;;;;10441829;28;20028;-80
2023/10/23 18:23:03;;;;;;;128.95;72.88;;;;;;;;;;10442637;28;20056;-80
2023/10/23 18:28:04;;;;;;;93.68;49.70;;;;;;;;;;10443276;28;20020;-80
2023/10/23 18:33:05;;;;;;;74.82;39.83;;;;;;;;;;10449769;28;20037;-81
2023/10/23 18:38:06;;;;;;;88.32;47.65;;;;;;;;;;10483981;28;20027;-79
2023/10/23 18:43:07;;;;;;;87.53;48.15;;;;;;;;;;10477915;28;20039;-79
2023/10/23 18:48:08;;;;;;;94.05;52.08;;;;;;;;;;10483235;28;20111;-80
2023/10/23 18:53:09;;;;;;;161.23;85.68;;;;;;;;;;10485055;28;20033;-83
2023/10/23 18:58:11;;;;;;;133.90;72.47;;;;;;;;;;10483890;28;20464;-82
2023/10/23 19:03:12;;;;;;;103.25;52.78;;;;;;;;;;10485239;28;20021;-79
2023/10/23 19:08:13;;;;;;;121.07;65.80;;;;;;;;;;10473302;28;20684;-79
2023/10/23 19:13:14;;;;;;;82.05;43.15;;;;;;;;;;10481281;28;20052;-80
2023/10/23 19:18:15;;;;;;;77.72;40.10;;;;;;;;;;10482782;28;20060;-81
2023/10/23 19:23:17;;;;;;;59.97;33.97;;;;;;;;;;10484353;28;20060;-79
2023/10/23 19:28:18;;;;;;;77.07;41.75;;;;;;;;;;10484674;28;20615;-80
2023/10/23 19:33:20;;;;;;;66.72;35.85;;;;;;;;;;10483056;28;20044;-82
2023/10/23 19:38:21;;;;;;;67.78;35.92;;;;;;;;;;10484110;28;20036;-80
2023/10/23 19:43:25;;;;;;;66.03;36.38;;;;;;;;;;10483978;28;20468;-82
2023/10/23 19:48:32;;;;;;;55.08;30.13;;;;;;;;;;10491387;28;20432;-80
2023/10/23 19:53:35;;;;;;;77.45;43.78;;;;;;;;;;10486388;28;20047;-79
2023/10/23 19:58:37;;;;;;;75.50;39.75;;;;;;;;;;10490900;28;20028;-83
2023/10/23 20:03:38;;;;;;;57.55;32.30;;;;;;;;;;10491295;28;20033;-80
2023/10/23 20:08:39;;;;;;;119.13;53.47;;;;;;;;;;10488409;28;20036;-79
2023/10/23 20:13:40;;;;;;;89.70;46.60;;;;;;;;;;10489570;28;20067;-80
2023/10/23 20:18:41;;;;;;;64.23;33.17;;;;;;;;;;10489343;28;20033;-80
2023/10/23 20:23:42;;;;;;;60.93;30.27;;;;;;;;;;10491243;28;20476;-80
2023/10/23 20:28:43;;;;;;;56.90;27.45;;;;;;;;;;10490415;28;20403;-79
2023/10/23 20:33:45;;;;;;;55.42;28.52;;;;;;;;;;10490436;28;20059;-82
2023/10/23 20:38:46;;;;;;;51.80;25.20;;;;;;;;;;10489467;28;20418;-82
2023/10/23 20:43:48;;;;;;;46.47;22.13;;;;;;;;;;10489977;28;20036;-79
2023/10/23 20:48:49;;;;;;;45.45;21.45;;;;;;;;;;10488984;28;20143;-80
2023/10/23 20:53:50;;;;;;;42.03;22.67;;;;;;;;;;10489944;28;20502;-83
2023/10/23 20:58:51;;;;;;;44.85;23.50;;;;;;;;;;10488944;28;20036;-80
2023/10/23 21:03:59;;;;;;;42.97;22.88;;;;;;;;;;10489392;28;20036;-80
2023/10/23 21:09:00;;;;;;;42.17;22.55;;;;;;;;;;10489202;28;20045;-83
2023/10/23 21:14:07;;;;;;;40.40;21.45;;;;;;;;;;10488588;28;20139;-80
2023/10/23 21:19:08;;;;;;;38.47;20.48;;;;;;;;;;10486313;28;20718;-79
2023/10/23 21:24:09;;;;;;;47.35;21.30;;;;;;;;;;10487441;28;20032;-79
2023/10/23 21:29:17;;;;;;;36.92;18.63;;;;;;;;;;10486828;28;20040;-80
2023/10/23 21:34:19;;;;;;;35.67;18.77;;;;;;;;;;10487372;28;20124;-82
2023/10/23 21:39:20;;;;;;;39.43;19.10;;;;;;;;;;10487803;28;20038;-80
2023/10/23 21:44:21;;;;;;;38.83;21.05;;;;;;;;;;10487221;28;20028;-80
2023/10/23 21:49:22;;;;;;;39.03;21.17;;;;;;;;;;10487107;28;20024;-80
2023/10/23 21:54:23;;;;;;;40.55;19.90;;;;;;;;;;10486675;28;20047;-80
2023/10/23 21:59:24;;;;;;;45.92;21.35;;;;;;;;;;10487535;28;20032;-79
2023/10/23 22:04:26;;;;;;;38.43;20.23;;;;;;;;;;10486031;28;20036;-79
2023/10/23 22:09:27;;;;;;;36.40;19.10;;;;;;;;;;10486211;28;20069;-80
2023/10/23 22:14:28;;;;;;;33.73;18.80;;;;;;;;;;10486152;28;20040;-80
2023/10/23 22:19:31;;;;;;;39.03;21.00;;;;;;;;;;10484830;28;20056;-79
2023/10/23 22:24:38;;;;;;;42.93;21.77;;;;;;;;;;10485414;28;20133;-80
2023/10/23 22:29:42;;;;;;;42.43;22.77;;;;;;;;;;10486394;28;20050;-79
2023/10/23 22:34:43;;;;;;;42.50;23.17;;;;;;;;;;10485265;28;20040;-80
2023/10/23 22:39:44;;;;;;;37.73;21.40;;;;;;;;;;10485781;28;20029;-82
2023/10/23 22:44:45;;;;;;;48.90;26.20;;;;;;;;;;10484372;28;20058;-80
2023/10/23 22:49:46;;;;;;;52.50;25.40;;;;;;;;;;10460875;28;20112;-80
2023/10/23 22:54:47;;;;;;;50.23;25.93;;;;;;;;;;10482424;28;20051;-80
2023/10/23 22:59:48;;;;;;;50.10;25.10;;;;;;;;;;10485383;28;20085;-79
2023/10/23 23:04:50;;;;;;;45.33;23.67;;;;;;;;;;10484583;28;20037;-79
2023/10/23 23:09:51;;;;;;;39.13;21.97;;;;;;;;;;10484488;28;20683;-81
2023/10/23 23:14:52;;;;;;;47.70;23.87;;;;;;;;;;10484103;28;20036;-80
2023/10/23 23:19:54;;;;;;;43.07;21.53;;;;;;;;;;10482361;28;20516;-80
2023/10/23 23:24:55;;;;;;;51.23;26.77;;;;;;;;;;10484136;28;20033;-79
2023/10/23 23:29:56;;;;;;;42.30;22.70;;;;;;;;;;10483659;28;20388;-79
2023/10/23 23:34:57;;;;;;;46.97;24.83;;;;;;;;;;10483999;28;20044;-80
2023/10/23 23:39:58;;;;;;;41.90;22.80;;;;;;;;;;10465222;28;20040;-79
2023/10/23 23:44:59;;;;;;;42.47;22.20;;;;;;;;;;10483134;28;20412;-80
2023/10/23 23:50:00;;;;;;;46.57;22.40;;;;;;;;;;10483747;28;20039;-80
2023/10/23 23:55:02;;;;;;;42.47;22.97;;;;;;;;;;10482878;28;20051;-84
